• Join FlightAware (Why Join?)
  • Login
  • US Flag 
06:49AM EDT


 

Airport Tracker/Info


-or-


 

Live Flight TrackerFlight Track Log ✈ VH-VGR ✈ 28-Apr-2012 ✈ YMML / MEL - YSSY / SYD

Flight Track Log - Related Links

Times and Time Zones

All times are in EDT time to prevent confusion due to time zone crossing. See the VH-VGR flight status page for this flight to view local times or setup timezone preferences in your user account.

Time Position Orientation Groundspeed Altitude Reporting Facility
EDT Latitude Longitude Course Direction KTS MPH feet Rate Location/Type
05:26PM -37.6495 144.8343 351° North 152 175 1,300  Level Aus ATC (RADAR)
05:27PM -37.5960 144.8239 20° North 227 261 2,800 1,500 Climbing Aus ATC (RADAR)
05:28PM -37.5534 144.8431 27° Northeast 294 338 3,700 1,260 Climbing Aus ATC (RADAR)
05:28PM -37.5088 144.8721 26° Northeast 313 360 4,300 2,280 Climbing Aus ATC (RADAR)
05:29PM -37.4623 144.9009 40° Northeast 322 371 6,400 3,660 Climbing Aus ATC (RADAR)
05:30PM -37.4164 144.9498 55° Northeast 343 395 8,900 3,600 Climbing Aus ATC (RADAR)
05:30PM -37.3845 145.0081 55° Northeast 353 406 10,900 3,240 Climbing Aus ATC (RADAR)
05:31PM -37.3379 145.0910 54° Northeast 357 411 13,500 2,880 Climbing Aus ATC (RADAR)
05:32PM -37.2779 145.1962 55° Northeast 379 436 16,200 2,640 Climbing Aus ATC (RADAR)
05:33PM -37.2311 145.2787 54° Northeast 393 452 18,100 2,400 Climbing Aus ATC (RADAR)
05:34PM -37.1664 145.3920 54° Northeast 405 466 20,500 2,400 Climbing Aus ATC (RADAR)
05:34PM -37.1222 145.4692 54° Northeast 413 475 22,100 2,040 Climbing Aus ATC (RADAR)
05:35PM -37.0828 145.5376 54° Northeast 420 483 23,100 1,860 Climbing Aus ATC (RADAR)
05:36PM -37.0190 145.6483 54° Northeast 430 495 24,900 1,860 Climbing Aus ATC (RADAR)
05:37PM -36.9719 145.7301 54° Northeast 438 504 26,100 1,740 Climbing Aus ATC (RADAR)
05:37PM -36.9302 145.8029 54° Northeast 444 511 27,100 1,740 Climbing Aus ATC (RADAR)
05:38PM -36.8812 145.8856 54° Northeast 447 514 28,300 1,680 Climbing Aus ATC (RADAR)
05:38PM -36.8389 145.9593 54° Northeast 449 517 29,200 1,440 Climbing Aus ATC (RADAR)
05:39PM -36.7953 146.0333 54° Northeast 457 526 30,000 1,440 Climbing Aus ATC (RADAR)
05:39PM -36.7582 146.0972 54° Northeast 457 526 30,800 1,440 Climbing Aus ATC (RADAR)
05:40PM -36.7143 146.1720 54° Northeast 460 529 31,600 1,500 Climbing Aus ATC (RADAR)
05:41PM -36.6208 146.3311 54° Northeast 457 526 33,600 1,620 Climbing Aus ATC (RADAR)
05:42PM -36.5777 146.4047 53° Northeast 449 517 34,600 1,440 Climbing Aus ATC (RADAR)
05:42PM -36.5399 146.4670 54° Northeast 451 519 35,200 1,020 Climbing Aus ATC (RADAR)
05:43PM -36.4845 146.5633 54° Northeast 459 528 35,900 960 Climbing Aus ATC (RADAR)
05:44PM -36.4404 146.6378 54° Northeast 458 527 36,500 1,260 Climbing Aus ATC (RADAR)
05:44PM -36.4031 146.7011 53° Northeast 455 524 37,300 720 Climbing Aus ATC (RADAR)
05:45PM -36.3593 146.7732 54° Northeast 446 513 37,300  Level Aus ATC (RADAR)
05:45PM -36.3157 146.8468 53° Northeast 453 521 37,300  Level Aus ATC (RADAR)
05:46PM -36.2460 146.9624 54° Northeast 455 524 37,300  Level Aus ATC (RADAR)
05:47PM -36.1774 147.0779 53° Northeast 450 518 37,300 -120 Level Aus ATC (RADAR)
05:48PM -36.1270 147.1616 53° Northeast 453 521 37,200  Descending Aus ATC (RADAR)
05:49PM -36.0514 147.2865 53° Northeast 452 520 37,300 60 Climbing Aus ATC (RADAR)
05:50PM -36.0011 147.3691 53° Northeast 450 518 37,300  Level Aus ATC (RADAR)
05:50PM -35.9316 147.4829 53° Northeast 451 519 37,300  Level Aus ATC (RADAR)
05:52PM -35.8432 147.6287 53° Northeast 452 520 37,300  Level Aus ATC (RADAR)
05:53PM -35.7665 147.7539 53° Northeast 455 524 37,300  Level Aus ATC (RADAR)
05:53PM -35.7152 147.8373 53° Northeast 455 524 37,300  Level Aus ATC (RADAR)
05:54PM -35.6701 147.9105 53° Northeast 457 526 37,300  Level Aus ATC (RADAR)
05:54PM -35.6248 147.9839 53° Northeast 459 528 37,300  Level Aus ATC (RADAR)
05:55PM -35.5800 148.0567 53° Northeast 455 524 37,300  Level Aus ATC (RADAR)
05:57PM -35.4647 148.2428 53° Northeast 452 520 37,300 -60 Level Aus ATC (RADAR)
05:58PM -35.3883 148.3657 53° Northeast 449 517 37,200 -60 Descending Aus ATC (RADAR)
05:58PM -35.3376 148.4469 52° Northeast 447 514 37,200 60 Level Aus ATC (RADAR)
05:59PM -35.2932 148.5171 53° Northeast 442 509 37,300  Climbing Aus ATC (RADAR)
05:59PM -35.2558 148.5771 52° Northeast 441 507 37,200 -120 Descending Aus ATC (RADAR)
06:00PM -35.2119 148.6463 52° Northeast 437 503 37,200  Level Aus ATC (RADAR)
06:02PM -35.0749 148.8636 52° Northeast 436 502 37,200 -180 Level Aus ATC (RADAR)
06:03PM -34.9994 148.9827 52° Northeast 442 509 36,800 -900 Descending Aus ATC (RADAR)
06:03PM -34.9435 149.0709 52° Northeast 429 494 35,700 -1,620 Descending Aus ATC (RADAR)
06:04PM -34.9060 149.1295 52° Northeast 432 497 34,800 -1,860 Descending Aus ATC (RADAR)
06:05PM -34.8624 149.1982 52° Northeast 431 496 33,700 -1,680 Descending Aus ATC (RADAR)
06:05PM -34.8197 149.2651 52° Northeast 423 487 32,900 -1,380 Descending Aus ATC (RADAR)
06:06PM -34.7782 149.3293 56° Northeast 407 468 32,100 -1,620 Descending Aus ATC (RADAR)
06:07PM -34.7162 149.4428 62° Northeast 398 458 30,400 -1,740 Descending Aus ATC (RADAR)
06:08PM -34.6644 149.5614 62° Northeast 387 445 28,700 -1,680 Descending Aus ATC (RADAR)
06:08PM -34.6305 149.6391 62° Northeast 380 437 27,600 -1,680 Descending Aus ATC (RADAR)
06:09PM -34.6051 149.6968 62° Northeast 378 435 26,800 -1,680 Descending Aus ATC (RADAR)
06:09PM -34.5763 149.7628 62° Northeast 371 427 25,800 -1,680 Descending Aus ATC (RADAR)
06:10PM -34.5474 149.8281 62° Northeast 366 421 24,900 -1,680 Descending Aus ATC (RADAR)
06:11PM -34.5196 149.8921 62° Northeast 359 413 23,900 -1,620 Descending Aus ATC (RADAR)
06:12PM -34.4572 150.0330 62° Northeast 343 395 21,900 -1,620 Descending Aus ATC (RADAR)
06:13PM -34.4154 150.1276 62° Northeast 338 389 20,300 -1,740 Descending Aus ATC (RADAR)
06:14PM -34.3855 150.1947 61° Northeast 329 379 19,200 -1,680 Descending Aus ATC (RADAR)
06:14PM -34.3594 150.2529 62° Northeast 327 376 18,200 -1,620 Descending Aus ATC (RADAR)
06:15PM -34.3375 150.3019 61° Northeast 321 369 17,500 -1,500 Descending Aus ATC (RADAR)
06:15PM -34.3158 150.3501 62° Northeast 318 366 16,700 -1,800 Descending Aus ATC (RADAR)
06:16PM -34.2913 150.4054 62° Northeast 310 357 15,600 -1,620 Descending Aus ATC (RADAR)
06:17PM -34.2414 150.5173 62° Northeast 353 406 14,000 -1,740 Descending Aus ATC (RADAR)
06:18PM -34.1884 150.6355 61° Northeast 403 464 12,000 -2,040 Descending Aus ATC (RADAR)
06:18PM -34.1517 150.7171 61° Northeast 399 459 10,600 -2,100 Descending Aus ATC (RADAR)
06:19PM -34.1208 150.7855 61° Northeast 385 443 9,400 -1,920 Descending Aus ATC (RADAR)
06:20PM -34.0902 150.8534 61° Northeast 380 437 8,400 -1,320 Descending Aus ATC (RADAR)
06:20PM -34.0604 150.9196 63° Northeast 373 429 7,900 -1,080 Descending Aus ATC (RADAR)
06:21PM -34.0383 150.9725 118° Southeast 343 395 7,300 -840 Descending Aus ATC (RADAR)
06:22PM -34.0836 151.0776 167° South 300 345 6,500 -720 Descending Aus ATC (RADAR)
06:23PM -34.1599 151.0983 168° South 276 318 5,800 -720 Descending Aus ATC (RADAR)
06:23PM -34.2103 151.1113 168° South 279 321 5,300 -660 Descending Aus ATC (RADAR)
06:24PM -34.2539 151.1228 154° Southeast 269 310 5,000 -540 Descending Aus ATC (RADAR)
06:25PM -34.2897 151.1438 108° East 246 283 4,700 -480 Descending Aus ATC (RADAR)
06:25PM -34.3001 151.1829 97° East 236 272 4,500 -480 Descending Aus ATC (RADAR)
06:26PM -34.3047 151.2291 14° North 233 268 4,200 -540 Descending Aus ATC (RADAR)
06:27PM -34.2337 151.2506 348° North 225 259 3,600 -360 Descending Aus ATC (RADAR)
06:28PM -34.1791 151.2366 348° North 185 213 3,400 -120 Descending Aus ATC (RADAR)
06:29PM -34.1470 151.2282 348° North 177 204 3,400 -240 Level Aus ATC (RADAR)
06:29PM -34.1189 151.2210 348° North 177 204 3,100 -780 Descending Aus ATC (RADAR)
06:30PM -34.0950 151.2147 348° North 176 203 2,600 -900 Descending Aus ATC (RADAR)
06:30PM -34.0719 151.2087 348° North 169 194 2,200 -840 Descending Aus ATC (RADAR)
06:31PM -34.0483 151.2024 348° North 144 166 1,700 -720 Descending Aus ATC (RADAR)
06:32PM -34.0093 151.1924 348° North 132 152 1,000 -720 Descending Aus ATC (RADAR)
06:33PM -33.9746 151.1834 348° North 127 146 300 -720 Descending Aus ATC (RADAR)